sensor_id;sensor_type;location;lat;lon;timestamp;temperature;humidity
8332;DHT22;4203;48.144;14.118;2023-04-02T00:01:45;7.50;99.90
8332;DHT22;4203;48.144;14.118;2023-04-02T00:04:18;7.40;99.90
8332;DHT22;4203;48.144;14.118;2023-04-02T00:09:40;7.40;99.90
8332;DHT22;4203;48.144;14.118;2023-04-02T00:12:13;7.40;99.90
8332;DHT22;4203;48.144;14.118;2023-04-02T00:14:46;7.40;99.90
8332;DHT22;4203;48.144;14.118;2023-04-02T00:17:14;7.40;99.90
8332;DHT22;4203;48.144;14.118;2023-04-02T00:19:45;7.40;99.90
8332;DHT22;4203;48.144;14.118;2023-04-02T00:22:18;7.30;99.90
8332;DHT22;4203;48.144;14.118;2023-04-02T00:24:45;7.30;99.90
8332;DHT22;4203;48.144;14.118;2023-04-02T00:27:14;7.40;99.90
8332;DHT22;4203;48.144;14.118;2023-04-02T00:29:45;7.30;99.90
8332;DHT22;4203;48.144;14.118;2023-04-02T00:32:19;7.30;99.90
8332;DHT22;4203;48.144;14.118;2023-04-02T00:34:48;7.30;99.90
8332;DHT22;4203;48.144;14.118;2023-04-02T00:37:19;7.30;99.90
8332;DHT22;4203;48.144;14.118;2023-04-02T00:39:50;7.30;99.90
8332;DHT22;4203;48.144;14.118;2023-04-02T00:42:19;7.30;99.90
8332;DHT22;4203;48.144;14.118;2023-04-02T00:44:48;7.40;99.90
8332;DHT22;4203;48.144;14.118;2023-04-02T00:47:20;7.40;99.90
8332;DHT22;4203;48.144;14.118;2023-04-02T00:49:50;7.40;99.90
8332;DHT22;4203;48.144;14.118;2023-04-02T00:52:25;7.40;99.90
8332;DHT22;4203;48.144;14.118;2023-04-02T00:54:59;7.40;99.90
8332;DHT22;4203;48.144;14.118;2023-04-02T00:57:28;7.40;99.90
8332;DHT22;4203;48.144;14.118;2023-04-02T01:00:00;7.40;99.90
8332;DHT22;4203;48.144;14.118;2023-04-02T01:02:34;7.40;99.90
8332;DHT22;4203;48.144;14.118;2023-04-02T01:05:20;7.40;99.90
8332;DHT22;4203;48.144;14.118;2023-04-02T01:07:59;7.40;99.90
8332;DHT22;4203;48.144;14.118;2023-04-02T01:10:48;7.40;99.90
8332;DHT22;4203;48.144;14.118;2023-04-02T01:13:24;7.40;99.90
8332;DHT22;4203;48.144;14.118;2023-04-02T01:16:01;7.40;99.90
8332;DHT22;4203;48.144;14.118;2023-04-02T01:18:44;7.40;99.90
8332;DHT22;4203;48.144;14.118;2023-04-02T01:24:23;7.40;99.90
8332;DHT22;4203;48.144;14.118;2023-04-02T01:26:57;7.40;99.90
8332;DHT22;4203;48.144;14.118;2023-04-02T01:29:28;7.40;99.90
8332;DHT22;4203;48.144;14.118;2023-04-02T01:31:59;7.40;99.90
8332;DHT22;4203;48.144;14.118;2023-04-02T01:34:27;7.50;99.90
8332;DHT22;4203;48.144;14.118;2023-04-02T01:37:06;7.60;99.90
8332;DHT22;4203;48.144;14.118;2023-04-02T01:39:50;7.70;99.90
8332;DHT22;4203;48.144;14.118;2023-04-02T01:42:23;7.60;99.90
8332;DHT22;4203;48.144;14.118;2023-04-02T01:45:00;7.60;99.90
8332;DHT22;4203;48.144;14.118;2023-04-02T01:47:28;7.70;99.90
8332;DHT22;4203;48.144;14.118;2023-04-02T01:49:57;7.60;99.90
8332;DHT22;4203;48.144;14.118;2023-04-02T01:52:35;7.70;99.90
8332;DHT22;4203;48.144;14.118;2023-04-02T01:55:03;7.70;99.90
8332;DHT22;4203;48.144;14.118;2023-04-02T01:57:30;7.70;99.90
8332;DHT22;4203;48.144;14.118;2023-04-02T02:00:00;7.70;99.90
8332;DHT22;4203;48.144;14.118;2023-04-02T02:02:33;7.70;99.90
8332;DHT22;4203;48.144;14.118;2023-04-02T02:05:00;7.70;99.90
8332;DHT22;4203;48.144;14.118;2023-04-02T02:07:28;7.60;99.90
8332;DHT22;4203;48.144;14.118;2023-04-02T02:09:56;7.60;99.90
8332;DHT22;4203;48.144;14.118;2023-04-02T02:12:23;7.60;99.90
8332;DHT22;4203;48.144;14.118;2023-04-02T02:14:51;7.60;99.90
8332;DHT22;4203;48.144;14.118;2023-04-02T02:17:24;7.70;99.90
8332;DHT22;4203;48.144;14.118;2023-04-02T02:19:54;7.60;99.90
8332;DHT22;4203;48.144;14.118;2023-04-02T02:22:27;7.60;99.90
8332;DHT22;4203;48.144;14.118;2023-04-02T02:24:55;7.60;99.90
8332;DHT22;4203;48.144;14.118;2023-04-02T02:27:46;7.60;99.90
8332;DHT22;4203;48.144;14.118;2023-04-02T02:30:17;7.60;99.90
8332;DHT22;4203;48.144;14.118;2023-04-02T02:32:52;7.60;99.90
8332;DHT22;4203;48.144;14.118;2023-04-02T02:35:25;7.60;99.90
8332;DHT22;4203;48.144;14.118;2023-04-02T02:37:58;7.60;99.90
8332;DHT22;4203;48.144;14.118;2023-04-02T02:40:33;7.60;99.90
8332;DHT22;4203;48.144;14.118;2023-04-02T02:43:04;7.60;99.90
8332;DHT22;4203;48.144;14.118;2023-04-02T02:45:36;7.60;99.90
8332;DHT22;4203;48.144;14.118;2023-04-02T02:48:10;7.70;99.90
8332;DHT22;4203;48.144;14.118;2023-04-02T02:50:39;7.70;99.90
8332;DHT22;4203;48.144;14.118;2023-04-02T02:53:16;7.70;99.90
8332;DHT22;4203;48.144;14.118;2023-04-02T02:55:46;7.70;99.90
8332;DHT22;4203;48.144;14.118;2023-04-02T02:58:15;7.70;99.90
8332;DHT22;4203;48.144;14.118;2023-04-02T03:00:45;7.70;99.90
8332;DHT22;4203;48.144;14.118;2023-04-02T03:03:16;7.70;99.90
8332;DHT22;4203;48.144;14.118;2023-04-02T03:05:49;7.70;99.90
8332;DHT22;4203;48.144;14.118;2023-04-02T03:08:22;7.70;99.90
8332;DHT22;4203;48.144;14.118;2023-04-02T03:10:54;7.60;99.90
8332;DHT22;4203;48.144;14.118;2023-04-02T03:13:26;7.60;99.90
8332;DHT22;4203;48.144;14.118;2023-04-02T03:15:59;7.60;99.90
8332;DHT22;4203;48.144;14.118;2023-04-02T03:18:36;7.50;99.90
8332;DHT22;4203;48.144;14.118;2023-04-02T03:21:13;7.50;99.90
8332;DHT22;4203;48.144;14.118;2023-04-02T03:23:44;7.40;99.90
8332;DHT22;4203;48.144;14.118;2023-04-02T03:26:16;7.40;99.90
8332;DHT22;4203;48.144;14.118;2023-04-02T03:28:49;7.40;99.90
8332;DHT22;4203;48.144;14.118;2023-04-02T03:31:22;7.40;99.90
8332;DHT22;4203;48.144;14.118;2023-04-02T03:33:55;7.30;99.90
8332;DHT22;4203;48.144;14.118;2023-04-02T03:36:27;7.30;99.90
8332;DHT22;4203;48.144;14.118;2023-04-02T03:39:00;7.20;99.90
8332;DHT22;4203;48.144;14.118;2023-04-02T03:41:32;7.20;99.90
8332;DHT22;4203;48.144;14.118;2023-04-02T03:44:05;7.20;99.90
8332;DHT22;4203;48.144;14.118;2023-04-02T03:46:40;7.20;99.90
8332;DHT22;4203;48.144;14.118;2023-04-02T03:49:12;7.20;99.90
8332;DHT22;4203;48.144;14.118;2023-04-02T03:51:46;7.20;99.90
8332;DHT22;4203;48.144;14.118;2023-04-02T03:54:16;7.20;99.90
8332;DHT22;4203;48.144;14.118;2023-04-02T03:56:44;7.30;99.90
8332;DHT22;4203;48.144;14.118;2023-04-02T03:59:19;7.30;99.90
8332;DHT22;4203;48.144;14.118;2023-04-02T04:01:54;7.30;99.90
8332;DHT22;4203;48.144;14.118;2023-04-02T04:04:26;7.30;99.90
8332;DHT22;4203;48.144;14.118;2023-04-02T04:06:55;7.20;99.90
8332;DHT22;4203;48.144;14.118;2023-04-02T04:09:25;7.20;99.90
8332;DHT22;4203;48.144;14.118;2023-04-02T04:12:08;7.20;99.90
8332;DHT22;4203;48.144;14.118;2023-04-02T04:14:40;7.30;99.90
8332;DHT22;4203;48.144;14.118;2023-04-02T04:17:13;7.30;99.90
8332;DHT22;4203;48.144;14.118;2023-04-02T04:19:53;7.30;99.90
8332;DHT22;4203;48.144;14.118;2023-04-02T04:22:25;7.30;99.90
8332;DHT22;4203;48.144;14.118;2023-04-02T04:24:58;7.30;99.90
8332;DHT22;4203;48.144;14.118;2023-04-02T04:27:30;7.30;99.90
8332;DHT22;4203;48.144;14.118;2023-04-02T04:30:03;7.30;99.90
8332;DHT22;4203;48.144;14.118;2023-04-02T04:32:34;7.30;99.90
8332;DHT22;4203;48.144;14.118;2023-04-02T04:35:13;7.30;99.90
8332;DHT22;4203;48.144;14.118;2023-04-02T04:37:44;7.30;99.90
8332;DHT22;4203;48.144;14.118;2023-04-02T04:40:17;7.20;99.90
8332;DHT22;4203;48.144;14.118;2023-04-02T04:42:47;7.30;99.90
8332;DHT22;4203;48.144;14.118;2023-04-02T04:45:29;7.30;99.90
8332;DHT22;4203;48.144;14.118;2023-04-02T04:48:03;7.40;99.90
8332;DHT22;4203;48.144;14.118;2023-04-02T04:50:37;7.40;99.90
8332;DHT22;4203;48.144;14.118;2023-04-02T04:53:05;7.50;99.90
8332;DHT22;4203;48.144;14.118;2023-04-02T04:55:37;7.50;99.90
8332;DHT22;4203;48.144;14.118;2023-04-02T04:58:15;7.50;99.90
8332;DHT22;4203;48.144;14.118;2023-04-02T05:00:54;7.50;99.90
8332;DHT22;4203;48.144;14.118;2023-04-02T05:03:29;7.50;99.90
8332;DHT22;4203;48.144;14.118;2023-04-02T05:06:08;7.50;99.90
8332;DHT22;4203;48.144;14.118;2023-04-02T05:08:41;7.40;99.90
8332;DHT22;4203;48.144;14.118;2023-04-02T05:11:13;7.40;99.90
8332;DHT22;4203;48.144;14.118;2023-04-02T05:13:46;7.40;99.90
8332;DHT22;4203;48.144;14.118;2023-04-02T05:16:19;7.50;99.90
8332;DHT22;4203;48.144;14.118;2023-04-02T05:18:51;7.50;99.90
8332;DHT22;4203;48.144;14.118;2023-04-02T05:21:27;7.50;99.90
8332;DHT22;4203;48.144;14.118;2023-04-02T05:24:32;7.50;99.90
8332;DHT22;4203;48.144;14.118;2023-04-02T05:27:08;7.50;99.90
8332;DHT22;4203;48.144;14.118;2023-04-02T05:29:40;7.50;99.90
8332;DHT22;4203;48.144;14.118;2023-04-02T05:32:14;7.60;99.90
8332;DHT22;4203;48.144;14.118;2023-04-02T05:34:46;7.60;99.90
8332;DHT22;4203;48.144;14.118;2023-04-02T05:37:18;7.70;99.90
8332;DHT22;4203;48.144;14.118;2023-04-02T05:39:51;7.70;99.90
8332;DHT22;4203;48.144;14.118;2023-04-02T05:42:22;7.80;99.90
8332;DHT22;4203;48.144;14.118;2023-04-02T05:45:02;7.80;99.90
8332;DHT22;4203;48.144;14.118;2023-04-02T05:47:31;7.90;99.90
8332;DHT22;4203;48.144;14.118;2023-04-02T05:50:16;7.90;99.90
8332;DHT22;4203;48.144;14.118;2023-04-02T05:52:50;7.90;99.90
8332;DHT22;4203;48.144;14.118;2023-04-02T05:55:41;7.90;99.90
8332;DHT22;4203;48.144;14.118;2023-04-02T05:58:16;8.00;99.90
8332;DHT22;4203;48.144;14.118;2023-04-02T06:01:12;8.00;99.90
8332;DHT22;4203;48.144;14.118;2023-04-02T06:03:45;8.10;99.90
8332;DHT22;4203;48.144;14.118;2023-04-02T06:06:21;8.10;99.90
8332;DHT22;4203;48.144;14.118;2023-04-02T06:08:56;8.20;99.90
8332;DHT22;4203;48.144;14.118;2023-04-02T06:11:27;8.20;99.90
8332;DHT22;4203;48.144;14.118;2023-04-02T06:13:57;8.30;99.90
8332;DHT22;4203;48.144;14.118;2023-04-02T06:16:28;8.30;99.90
8332;DHT22;4203;48.144;14.118;2023-04-02T06:18:57;8.40;99.90
8332;DHT22;4203;48.144;14.118;2023-04-02T06:21:25;8.40;99.90
8332;DHT22;4203;48.144;14.118;2023-04-02T06:23:55;8.30;99.90
8332;DHT22;4203;48.144;14.118;2023-04-02T06:26:26;8.40;99.90
8332;DHT22;4203;48.144;14.118;2023-04-02T06:28:58;8.40;99.90
8332;DHT22;4203;48.144;14.118;2023-04-02T06:31:37;8.40;99.90
8332;DHT22;4203;48.144;14.118;2023-04-02T06:34:12;8.40;99.90
8332;DHT22;4203;48.144;14.118;2023-04-02T06:36:41;8.40;99.90
8332;DHT22;4203;48.144;14.118;2023-04-02T06:39:16;8.40;99.90
8332;DHT22;4203;48.144;14.118;2023-04-02T06:41:44;8.40;99.90
8332;DHT22;4203;48.144;14.118;2023-04-02T06:44:14;8.40;99.90
8332;DHT22;4203;48.144;14.118;2023-04-02T06:46:45;8.30;99.90
8332;DHT22;4203;48.144;14.118;2023-04-02T06:49:18;8.30;99.90
8332;DHT22;4203;48.144;14.118;2023-04-02T06:51:48;8.30;99.90
8332;DHT22;4203;48.144;14.118;2023-04-02T06:54:18;8.20;99.90
8332;DHT22;4203;48.144;14.118;2023-04-02T06:56:47;8.20;99.90
8332;DHT22;4203;48.144;14.118;2023-04-02T06:59:15;8.10;99.90
8332;DHT22;4203;48.144;14.118;2023-04-02T07:01:45;8.00;99.90
8332;DHT22;4203;48.144;14.118;2023-04-02T07:04:14;8.00;99.90
8332;DHT22;4203;48.144;14.118;2023-04-02T07:06:42;8.00;99.90
8332;DHT22;4203;48.144;14.118;2023-04-02T07:09:09;7.90;99.90
8332;DHT22;4203;48.144;14.118;2023-04-02T07:11:39;7.90;99.90
8332;DHT22;4203;48.144;14.118;2023-04-02T07:14:06;7.90;99.90
8332;DHT22;4203;48.144;14.118;2023-04-02T07:16:34;7.90;99.90
8332;DHT22;4203;48.144;14.118;2023-04-02T07:19:02;7.90;99.90
8332;DHT22;4203;48.144;14.118;2023-04-02T07:21:30;7.90;99.90
8332;DHT22;4203;48.144;14.118;2023-04-02T07:23:57;7.80;99.90
8332;DHT22;4203;48.144;14.118;2023-04-02T07:26:26;7.80;99.90
8332;DHT22;4203;48.144;14.118;2023-04-02T07:28:55;7.80;99.90
8332;DHT22;4203;48.144;14.118;2023-04-02T07:31:24;7.70;99.90
8332;DHT22;4203;48.144;14.118;2023-04-02T07:33:52;7.80;99.90
8332;DHT22;4203;48.144;14.118;2023-04-02T07:36:23;7.80;99.90
8332;DHT22;4203;48.144;14.118;2023-04-02T07:38:50;7.80;99.90
8332;DHT22;4203;48.144;14.118;2023-04-02T07:41:18;7.70;99.90
8332;DHT22;4203;48.144;14.118;2023-04-02T07:43:46;7.80;99.90
8332;DHT22;4203;48.144;14.118;2023-04-02T07:46:15;7.80;99.90
8332;DHT22;4203;48.144;14.118;2023-04-02T07:48:43;7.80;99.90
8332;DHT22;4203;48.144;14.118;2023-04-02T07:51:15;7.90;99.90
8332;DHT22;4203;48.144;14.118;2023-04-02T07:53:42;7.90;99.90
8332;DHT22;4203;48.144;14.118;2023-04-02T07:56:13;7.90;99.90
8332;DHT22;4203;48.144;14.118;2023-04-02T07:58:41;7.90;99.90
8332;DHT22;4203;48.144;14.118;2023-04-02T08:01:16;7.90;99.90
8332;DHT22;4203;48.144;14.118;2023-04-02T08:03:44;7.90;99.90
8332;DHT22;4203;48.144;14.118;2023-04-02T08:06:11;8.00;99.90
8332;DHT22;4203;48.144;14.118;2023-04-02T08:08:39;8.00;99.90
8332;DHT22;4203;48.144;14.118;2023-04-02T08:11:07;8.10;99.90
8332;DHT22;4203;48.144;14.118;2023-04-02T08:13:34;8.10;99.90
8332;DHT22;4203;48.144;14.118;2023-04-02T08:16:02;8.20;99.90
8332;DHT22;4203;48.144;14.118;2023-04-02T08:18:31;8.40;99.90
8332;DHT22;4203;48.144;14.118;2023-04-02T08:20:58;8.50;99.90
8332;DHT22;4203;48.144;14.118;2023-04-02T08:23:26;8.60;99.90
8332;DHT22;4203;48.144;14.118;2023-04-02T08:25:54;8.70;99.90
8332;DHT22;4203;48.144;14.118;2023-04-02T08:28:21;8.70;99.90
8332;DHT22;4203;48.144;14.118;2023-04-02T08:30:49;8.80;99.90
8332;DHT22;4203;48.144;14.118;2023-04-02T08:33:17;8.90;99.90
8332;DHT22;4203;48.144;14.118;2023-04-02T08:35:47;8.90;99.90
8332;DHT22;4203;48.144;14.118;2023-04-02T08:38:16;8.90;99.90
8332;DHT22;4203;48.144;14.118;2023-04-02T08:40:45;8.90;99.90
8332;DHT22;4203;48.144;14.118;2023-04-02T08:43:35;9.00;99.90
8332;DHT22;4203;48.144;14.118;2023-04-02T08:46:10;9.20;99.90
8332;DHT22;4203;48.144;14.118;2023-04-02T08:48:43;9.20;99.90
8332;DHT22;4203;48.144;14.118;2023-04-02T08:51:21;9.30;99.90
8332;DHT22;4203;48.144;14.118;2023-04-02T08:53:50;9.20;99.90
8332;DHT22;4203;48.144;14.118;2023-04-02T08:56:24;9.40;99.90
8332;DHT22;4203;48.144;14.118;2023-04-02T08:58:55;9.20;99.90
8332;DHT22;4203;48.144;14.118;2023-04-02T09:01:29;9.00;99.90
8332;DHT22;4203;48.144;14.118;2023-04-02T09:04:00;9.10;99.90
8332;DHT22;4203;48.144;14.118;2023-04-02T09:06:30;8.90;99.90
8332;DHT22;4203;48.144;14.118;2023-04-02T09:08:59;8.80;99.90
8332;DHT22;4203;48.144;14.118;2023-04-02T09:11:32;8.70;99.90
8332;DHT22;4203;48.144;14.118;2023-04-02T09:14:04;8.60;99.90
8332;DHT22;4203;48.144;14.118;2023-04-02T09:16:40;8.30;99.90
8332;DHT22;4203;48.144;14.118;2023-04-02T09:19:21;8.10;99.90
8332;DHT22;4203;48.144;14.118;2023-04-02T09:22:03;8.10;99.90
8332;DHT22;4203;48.144;14.118;2023-04-02T09:24:31;8.10;99.90
8332;DHT22;4203;48.144;14.118;2023-04-02T09:26:59;8.00;99.90
8332;DHT22;4203;48.144;14.118;2023-04-02T09:29:42;8.00;99.90
8332;DHT22;4203;48.144;14.118;2023-04-02T09:32:37;8.00;99.90
8332;DHT22;4203;48.144;14.118;2023-04-02T09:35:09;8.00;99.90
8332;DHT22;4203;48.144;14.118;2023-04-02T09:37:39;7.90;99.90
8332;DHT22;4203;48.144;14.118;2023-04-02T09:40:20;7.80;99.90
8332;DHT22;4203;48.144;14.118;2023-04-02T09:42:48;7.80;99.90
8332;DHT22;4203;48.144;14.118;2023-04-02T09:45:19;7.80;99.90
8332;DHT22;4203;48.144;14.118;2023-04-02T09:47:47;7.80;99.90
8332;DHT22;4203;48.144;14.118;2023-04-02T09:50:24;7.80;99.90
8332;DHT22;4203;48.144;14.118;2023-04-02T09:52:53;7.80;99.90
8332;DHT22;4203;48.144;14.118;2023-04-02T09:55:23;7.80;99.90
8332;DHT22;4203;48.144;14.118;2023-04-02T09:58:07;7.70;99.90
8332;DHT22;4203;48.144;14.118;2023-04-02T10:00:37;7.70;99.90
8332;DHT22;4203;48.144;14.118;2023-04-02T10:03:14;7.80;99.90
8332;DHT22;4203;48.144;14.118;2023-04-02T10:05:45;7.80;99.90
8332;DHT22;4203;48.144;14.118;2023-04-02T10:08:23;7.90;99.90
8332;DHT22;4203;48.144;14.118;2023-04-02T10:10:53;7.90;99.90
8332;DHT22;4203;48.144;14.118;2023-04-02T10:13:24;8.00;99.90
8332;DHT22;4203;48.144;14.118;2023-04-02T10:15:56;8.20;99.90
8332;DHT22;4203;48.144;14.118;2023-04-02T10:18:35;8.20;99.90
8332;DHT22;4203;48.144;14.118;2023-04-02T10:21:05;8.30;99.90
8332;DHT22;4203;48.144;14.118;2023-04-02T10:23:35;8.30;99.90
8332;DHT22;4203;48.144;14.118;2023-04-02T10:26:21;8.30;99.90
8332;DHT22;4203;48.144;14.118;2023-04-02T10:29:07;8.40;99.90
8332;DHT22;4203;48.144;14.118;2023-04-02T10:31:46;8.60;99.90
8332;DHT22;4203;48.144;14.118;2023-04-02T10:34:22;8.70;99.90
8332;DHT22;4203;48.144;14.118;2023-04-02T10:36:53;8.90;99.90
8332;DHT22;4203;48.144;14.118;2023-04-02T10:39:25;9.20;99.90
8332;DHT22;4203;48.144;14.118;2023-04-02T10:42:01;9.30;99.90
8332;DHT22;4203;48.144;14.118;2023-04-02T10:44:48;9.50;99.90
8332;DHT22;4203;48.144;14.118;2023-04-02T10:47:29;9.50;99.90
8332;DHT22;4203;48.144;14.118;2023-04-02T10:50:06;9.50;99.90
8332;DHT22;4203;48.144;14.118;2023-04-02T10:52:39;9.70;99.90
8332;DHT22;4203;48.144;14.118;2023-04-02T10:55:16;9.70;99.90
8332;DHT22;4203;48.144;14.118;2023-04-02T10:57:44;9.90;99.90
8332;DHT22;4203;48.144;14.118;2023-04-02T11:00:20;10.10;99.90
8332;DHT22;4203;48.144;14.118;2023-04-02T11:02:53;10.10;99.90
8332;DHT22;4203;48.144;14.118;2023-04-02T11:05:28;10.10;99.90
8332;DHT22;4203;48.144;14.118;2023-04-02T11:08:01;10.30;99.90
8332;DHT22;4203;48.144;14.118;2023-04-02T11:10:34;10.30;99.90
8332;DHT22;4203;48.144;14.118;2023-04-02T11:13:08;10.20;99.90
8332;DHT22;4203;48.144;14.118;2023-04-02T11:15:39;10.20;99.90
8332;DHT22;4203;48.144;14.118;2023-04-02T11:18:23;10.00;99.90
8332;DHT22;4203;48.144;14.118;2023-04-02T11:21:00;10.10;99.90
8332;DHT22;4203;48.144;14.118;2023-04-02T11:23:32;9.90;99.90
8332;DHT22;4203;48.144;14.118;2023-04-02T11:26:42;9.90;99.90
8332;DHT22;4203;48.144;14.118;2023-04-02T11:29:19;10.10;99.90
8332;DHT22;4203;48.144;14.118;2023-04-02T11:31:49;9.90;99.90
8332;DHT22;4203;48.144;14.118;2023-04-02T11:37:31;9.90;99.90
8332;DHT22;4203;48.144;14.118;2023-04-02T11:39:59;9.90;99.90
8332;DHT22;4203;48.144;14.118;2023-04-02T11:42:30;10.00;99.90
8332;DHT22;4203;48.144;14.118;2023-04-02T11:45:00;10.00;99.90
8332;DHT22;4203;48.144;14.118;2023-04-02T11:50:47;9.70;99.90
8332;DHT22;4203;48.144;14.118;2023-04-02T11:53:19;9.80;99.90
8332;DHT22;4203;48.144;14.118;2023-04-02T11:56:07;9.90;99.90
8332;DHT22;4203;48.144;14.118;2023-04-02T11:58:54;9.90;99.90
8332;DHT22;4203;48.144;14.118;2023-04-02T12:01:44;10.00;99.90
8332;DHT22;4203;48.144;14.118;2023-04-02T12:04:40;10.00;99.90
8332;DHT22;4203;48.144;14.118;2023-04-02T12:07:29;9.90;99.90
8332;DHT22;4203;48.144;14.118;2023-04-02T12:10:03;9.80;99.90
8332;DHT22;4203;48.144;14.118;2023-04-02T12:12:35;9.60;99.90
8332;DHT22;4203;48.144;14.118;2023-04-02T12:15:06;9.30;99.90
8332;DHT22;4203;48.144;14.118;2023-04-02T12:18:02;9.20;99.90
8332;DHT22;4203;48.144;14.118;2023-04-02T12:20:31;9.00;99.90
8332;DHT22;4203;48.144;14.118;2023-04-02T12:22:58;8.90;99.90
8332;DHT22;4203;48.144;14.118;2023-04-02T12:25:27;8.80;99.90
8332;DHT22;4203;48.144;14.118;2023-04-02T12:28:03;8.80;99.90
8332;DHT22;4203;48.144;14.118;2023-04-02T12:30:33;8.80;99.90
8332;DHT22;4203;48.144;14.118;2023-04-02T12:33:14;8.90;99.90
8332;DHT22;4203;48.144;14.118;2023-04-02T12:35:43;8.90;99.90
8332;DHT22;4203;48.144;14.118;2023-04-02T12:38:21;8.80;99.90
8332;DHT22;4203;48.144;14.118;2023-04-02T12:40:54;8.80;99.90
8332;DHT22;4203;48.144;14.118;2023-04-02T12:43:23;8.80;99.90
8332;DHT22;4203;48.144;14.118;2023-04-02T12:45:52;8.80;99.90
8332;DHT22;4203;48.144;14.118;2023-04-02T12:48:21;8.80;99.90
8332;DHT22;4203;48.144;14.118;2023-04-02T12:50:49;8.70;99.90
8332;DHT22;4203;48.144;14.118;2023-04-02T12:53:19;8.70;99.90
8332;DHT22;4203;48.144;14.118;2023-04-02T12:55:48;8.60;99.90
8332;DHT22;4203;48.144;14.118;2023-04-02T12:58:25;8.50;99.90
8332;DHT22;4203;48.144;14.118;2023-04-02T13:01:08;8.40;99.90
8332;DHT22;4203;48.144;14.118;2023-04-02T13:03:36;8.50;99.90
8332;DHT22;4203;48.144;14.118;2023-04-02T13:06:10;8.60;99.90
8332;DHT22;4203;48.144;14.118;2023-04-02T13:08:42;8.60;99.90
8332;DHT22;4203;48.144;14.118;2023-04-02T13:11:09;8.50;99.90
8332;DHT22;4203;48.144;14.118;2023-04-02T13:13:38;8.60;99.90
8332;DHT22;4203;48.144;14.118;2023-04-02T13:16:24;8.60;99.90
8332;DHT22;4203;48.144;14.118;2023-04-02T13:19:17;8.60;99.90
8332;DHT22;4203;48.144;14.118;2023-04-02T13:21:46;8.80;99.90
8332;DHT22;4203;48.144;14.118;2023-04-02T13:24:17;8.80;99.90
8332;DHT22;4203;48.144;14.118;2023-04-02T13:26:45;8.80;99.90
8332;DHT22;4203;48.144;14.118;2023-04-02T13:29:21;8.80;99.90
8332;DHT22;4203;48.144;14.118;2023-04-02T13:31:50;8.70;99.90
8332;DHT22;4203;48.144;14.118;2023-04-02T13:34:17;8.60;99.90
8332;DHT22;4203;48.144;14.118;2023-04-02T13:36:45;8.60;99.90
8332;DHT22;4203;48.144;14.118;2023-04-02T13:39:12;8.70;99.90
8332;DHT22;4203;48.144;14.118;2023-04-02T13:41:41;8.70;99.90
8332;DHT22;4203;48.144;14.118;2023-04-02T13:44:21;8.80;99.90
8332;DHT22;4203;48.144;14.118;2023-04-02T13:46:51;8.70;99.90
8332;DHT22;4203;48.144;14.118;2023-04-02T13:49:18;8.70;99.90
8332;DHT22;4203;48.144;14.118;2023-04-02T13:51:47;8.60;99.90
8332;DHT22;4203;48.144;14.118;2023-04-02T13:54:22;8.50;99.90
8332;DHT22;4203;48.144;14.118;2023-04-02T13:56:50;8.30;99.90
8332;DHT22;4203;48.144;14.118;2023-04-02T13:59:17;8.50;99.90
8332;DHT22;4203;48.144;14.118;2023-04-02T14:01:46;8.60;99.90
8332;DHT22;4203;48.144;14.118;2023-04-02T14:04:18;8.60;99.90
8332;DHT22;4203;48.144;14.118;2023-04-02T14:07:26;8.60;99.90
8332;DHT22;4203;48.144;14.118;2023-04-02T14:10:04;8.70;99.90
8332;DHT22;4203;48.144;14.118;2023-04-02T14:12:44;8.70;99.90
8332;DHT22;4203;48.144;14.118;2023-04-02T14:15:21;8.60;99.90
8332;DHT22;4203;48.144;14.118;2023-04-02T14:18:02;8.60;99.90
8332;DHT22;4203;48.144;14.118;2023-04-02T14:20:43;8.60;99.90
8332;DHT22;4203;48.144;14.118;2023-04-02T14:23:32;8.80;99.90
8332;DHT22;4203;48.144;14.118;2023-04-02T14:26:08;8.90;99.90
8332;DHT22;4203;48.144;14.118;2023-04-02T14:28:43;8.90;99.90
8332;DHT22;4203;48.144;14.118;2023-04-02T14:31:17;8.80;99.90
8332;DHT22;4203;48.144;14.118;2023-04-02T14:33:56;8.70;99.90
8332;DHT22;4203;48.144;14.118;2023-04-02T14:36:37;8.60;99.90
8332;DHT22;4203;48.144;14.118;2023-04-02T14:39:12;8.60;99.90
8332;DHT22;4203;48.144;14.118;2023-04-02T14:41:47;8.50;99.90
8332;DHT22;4203;48.144;14.118;2023-04-02T14:44:20;8.40;99.90
8332;DHT22;4203;48.144;14.118;2023-04-02T14:46:49;8.40;99.90
8332;DHT22;4203;48.144;14.118;2023-04-02T14:49:23;8.30;99.90
8332;DHT22;4203;48.144;14.118;2023-04-02T14:51:55;8.30;99.90
8332;DHT22;4203;48.144;14.118;2023-04-02T14:54:30;8.30;99.90
8332;DHT22;4203;48.144;14.118;2023-04-02T14:57:02;8.30;99.90
8332;DHT22;4203;48.144;14.118;2023-04-02T14:59:33;8.40;99.90
8332;DHT22;4203;48.144;14.118;2023-04-02T15:02:03;8.40;99.90
8332;DHT22;4203;48.144;14.118;2023-04-02T15:04:37;8.40;99.90
8332;DHT22;4203;48.144;14.118;2023-04-02T15:07:16;8.40;99.90
8332;DHT22;4203;48.144;14.118;2023-04-02T15:09:49;8.50;99.90
8332;DHT22;4203;48.144;14.118;2023-04-02T15:12:21;8.50;99.90
8332;DHT22;4203;48.144;14.118;2023-04-02T15:14:53;8.50;99.90
8332;DHT22;4203;48.144;14.118;2023-04-02T15:17:21;8.40;99.90
8332;DHT22;4203;48.144;14.118;2023-04-02T15:19:51;8.40;99.90
8332;DHT22;4203;48.144;14.118;2023-04-02T15:22:30;8.20;99.90
8332;DHT22;4203;48.144;14.118;2023-04-02T15:25:06;8.10;99.90
8332;DHT22;4203;48.144;14.118;2023-04-02T15:27:53;7.90;99.90
8332;DHT22;4203;48.144;14.118;2023-04-02T15:30:24;7.80;99.90
8332;DHT22;4203;48.144;14.118;2023-04-02T15:32:55;7.90;99.90
8332;DHT22;4203;48.144;14.118;2023-04-02T15:35:30;7.80;99.90
8332;DHT22;4203;48.144;14.118;2023-04-02T15:38:05;7.80;99.90
8332;DHT22;4203;48.144;14.118;2023-04-02T15:40:45;7.70;99.90
8332;DHT22;4203;48.144;14.118;2023-04-02T15:43:19;7.70;99.90
8332;DHT22;4203;48.144;14.118;2023-04-02T15:45:59;7.60;99.90
8332;DHT22;4203;48.144;14.118;2023-04-02T15:51:51;7.50;99.90
8332;DHT22;4203;48.144;14.118;2023-04-02T15:54:39;7.40;99.90
8332;DHT22;4203;48.144;14.118;2023-04-02T15:57:18;7.30;99.90
8332;DHT22;4203;48.144;14.118;2023-04-02T16:00:02;7.30;99.90
8332;DHT22;4203;48.144;14.118;2023-04-02T16:02:45;7.30;99.90
8332;DHT22;4203;48.144;14.118;2023-04-02T16:05:19;7.30;99.90
8332;DHT22;4203;48.144;14.118;2023-04-02T16:08:05;7.40;99.90
8332;DHT22;4203;48.144;14.118;2023-04-02T16:10:40;7.30;99.90
8332;DHT22;4203;48.144;14.118;2023-04-02T16:13:14;7.20;99.90
8332;DHT22;4203;48.144;14.118;2023-04-02T16:15:46;7.20;99.90
8332;DHT22;4203;48.144;14.118;2023-04-02T16:18:22;7.10;99.90
8332;DHT22;4203;48.144;14.118;2023-04-02T16:20:52;7.00;99.90
8332;DHT22;4203;48.144;14.118;2023-04-02T16:23:28;7.00;99.90
8332;DHT22;4203;48.144;14.118;2023-04-02T16:26:03;7.00;99.90
8332;DHT22;4203;48.144;14.118;2023-04-02T16:28:40;6.90;99.90
8332;DHT22;4203;48.144;14.118;2023-04-02T16:31:13;6.90;99.90
8332;DHT22;4203;48.144;14.118;2023-04-02T16:33:51;6.90;99.90
8332;DHT22;4203;48.144;14.118;2023-04-02T16:36:34;6.90;99.90
8332;DHT22;4203;48.144;14.118;2023-04-02T16:39:12;6.80;99.90
8332;DHT22;4203;48.144;14.118;2023-04-02T16:41:54;6.70;99.90
8332;DHT22;4203;48.144;14.118;2023-04-02T16:44:30;6.70;99.90
8332;DHT22;4203;48.144;14.118;2023-04-02T16:47:10;6.60;99.90
8332;DHT22;4203;48.144;14.118;2023-04-02T16:49:44;6.50;99.90
8332;DHT22;4203;48.144;14.118;2023-04-02T16:52:26;6.50;99.90
8332;DHT22;4203;48.144;14.118;2023-04-02T16:55:06;6.40;99.90
8332;DHT22;4203;48.144;14.118;2023-04-02T16:57:42;6.30;99.90
8332;DHT22;4203;48.144;14.118;2023-04-02T17:00:19;6.30;99.90